Time;durP1;ratioP1;P1;durP2;ratioP2;P2;SDS_P1;SDS_P2;PMS_P1;PMS_P2;Temp;Humidity;BMP_temperature;BMP_pressure;BME280_temperature;BME280_humidity;BME280_pressure;Samples;Min_cycle;Max_cycle;Signal;HPM_P1;HPM_P2
2022/12/27 00:00:43;;;;;;;0.80;0.80;;;12.60;1.00;;;;;;6291846;23;19990;-65
2022/12/27 00:03:14;;;;;;;0.57;0.52;;;12.70;1.00;;;;;;6316962;23;20311;-65
2022/12/27 00:05:46;;;;;;;0.68;0.68;;;12.70;1.00;;;;;;6282183;23;20014;-66
2022/12/27 00:08:17;;;;;;;0.68;0.40;;;12.60;1.00;;;;;;6299361;23;20005;-67
2022/12/27 00:10:48;;;;;;;0.63;0.63;;;12.50;1.00;;;;;;6316525;23;20002;-66
2022/12/27 00:13:19;;;;;;;0.80;0.80;;;12.50;1.00;;;;;;6301932;23;20002;-68
2022/12/27 00:15:51;;;;;;;0.70;0.70;;;12.40;1.00;;;;;;6315692;23;20163;-65
2022/12/27 00:18:25;;;;;;;0.68;0.68;;;12.40;1.00;;;;;;6316844;23;20195;-68
2022/12/27 00:20:58;;;;;;;0.70;0.70;;;12.40;1.00;;;;;;6291228;23;20012;-65
2022/12/27 00:23:40;;;;;;;0.60;0.60;;;12.50;1.00;;;;;;6290412;23;20010;-67
2022/12/27 00:26:18;;;;;;;0.50;0.50;;;12.50;1.00;;;;;;6291646;23;20006;-66
2022/12/27 00:28:50;;;;;;;0.70;0.70;;;12.50;1.00;;;;;;6290648;23;20029;-66
2022/12/27 00:31:22;;;;;;;0.68;0.68;;;12.40;1.00;;;;;;6291052;23;20279;-70
2022/12/27 00:33:56;;;;;;;0.60;0.60;;;12.40;1.00;;;;;;6293660;23;20089;-66
2022/12/27 00:36:31;;;;;;;1.23;1.00;;;12.30;1.00;;;;;;6293025;23;19995;-66
2022/12/27 00:39:05;;;;;;;0.60;0.60;;;12.20;1.00;;;;;;6293779;23;20312;-67
2022/12/27 00:41:37;;;;;;;0.70;0.70;;;12.20;1.00;;;;;;6291341;23;20017;-64
2022/12/27 00:44:08;;;;;;;0.77;0.60;;;12.10;1.00;;;;;;6292081;23;20005;-65
2022/12/27 00:46:42;;;;;;;0.93;0.80;;;12.00;1.00;;;;;;6315695;23;20013;-66
2022/12/27 00:49:13;;;;;;;0.90;0.90;;;11.80;1.00;;;;;;6316472;23;19997;-67
2022/12/27 00:51:47;;;;;;;0.40;0.40;;;11.80;1.00;;;;;;6293308;23;20051;-66
2022/12/27 00:54:18;;;;;;;0.80;0.80;;;11.70;1.00;;;;;;6294528;23;19998;-65
2022/12/27 00:56:49;;;;;;;0.60;0.60;;;11.60;1.00;;;;;;6291424;23;20539;-66
2022/12/27 00:59:22;;;;;;;0.75;0.50;;;11.50;1.00;;;;;;6293715;23;20042;-65
2022/12/27 01:01:53;;;;;;;0.80;0.80;;;11.60;1.00;;;;;;6324973;23;20016;-67
2022/12/27 01:04:26;;;;;;;0.60;0.60;;;11.50;1.00;;;;;;6433169;22;20007;-66
2022/12/27 01:06:57;;;;;;;0.60;0.60;;;11.50;1.00;;;;;;6440952;23;20048;-66
2022/12/27 01:09:29;;;;;;;0.73;0.73;;;11.50;1.00;;;;;;6421085;23;20052;-66
2022/12/27 01:12:00;;;;;;;0.63;0.63;;;11.40;1.00;;;;;;6419453;23;20352;-65
2022/12/27 01:14:39;;;;;;;0.70;0.70;;;11.30;1.00;;;;;;6420075;23;19999;-64
2022/12/27 01:17:13;;;;;;;0.50;0.50;;;11.30;1.00;;;;;;6443344;23;20004;-65
2022/12/27 01:19:47;;;;;;;1.15;1.05;;;11.40;1.00;;;;;;6444470;23;20056;-65
2022/12/27 01:22:21;;;;;;;0.82;0.80;;;11.30;1.00;;;;;;6444416;23;20293;-66
2022/12/27 01:24:55;;;;;;;0.70;0.70;;;11.30;1.00;;;;;;6419223;23;20288;-65
2022/12/27 01:27:31;;;;;;;1.38;0.60;;;11.20;1.00;;;;;;6419882;23;20305;-66
2022/12/27 01:30:12;;;;;;;0.60;0.60;;;11.10;1.00;;;;;;6445735;23;20467;-65
2022/12/27 01:32:45;;;;;;;0.50;0.50;;;11.00;1.00;;;;;;6447608;23;20007;-64
2022/12/27 01:35:23;;;;;;;0.50;0.50;;;11.00;1.00;;;;;;6422396;23;20010;-66
2022/12/27 01:38:00;;;;;;;0.70;0.70;;;11.00;1.00;;;;;;6397442;23;19999;-64
2022/12/27 01:40:34;;;;;;;1.77;0.77;;;11.00;1.00;;;;;;6446406;23;19992;-64
2022/12/27 01:43:15;;;;;;;1.13;0.40;;;11.00;1.00;;;;;;6447598;23;20010;-65
2022/12/27 01:45:51;;;;;;;0.50;0.50;;;11.00;1.00;;;;;;6447648;23;20010;-65
2022/12/27 01:48:29;;;;;;;0.50;0.50;;;11.10;1.00;;;;;;6424519;23;20479;-64
2022/12/27 01:51:04;;;;;;;0.57;0.57;;;11.10;1.00;;;;;;6423400;23;20044;-66
2022/12/27 01:53:40;;;;;;;0.60;0.60;;;11.00;1.00;;;;;;6422716;23;19988;-65
2022/12/27 01:56:29;;;;;;;0.50;0.50;;;11.00;1.00;;;;;;6395949;23;20137;-65
2022/12/27 01:59:08;;;;;;;0.50;0.50;;;11.00;1.00;;;;;;6420837;23;20076;-65
2022/12/27 02:01:51;;;;;;;0.57;0.57;;;10.90;1.00;;;;;;6420266;23;20341;-65
2022/12/27 02:04:30;;;;;;;0.80;0.80;;;10.90;1.00;;;;;;6407194;22;20005;-65
2022/12/27 02:07:03;;;;;;;0.70;0.70;;;10.90;1.00;;;;;;6442616;23;20006;-66
2022/12/27 02:09:48;;;;;;;0.70;0.70;;;10.80;1.00;;;;;;6421596;23;20000;-65
2022/12/27 02:12:24;;;;;;;0.50;0.50;;;10.80;1.00;;;;;;6446326;22;19998;-64
2022/12/27 02:15:01;;;;;;;0.90;0.90;;;10.80;1.00;;;;;;6419425;23;20000;-67
2022/12/27 02:17:40;;;;;;;0.50;0.50;;;10.80;11.20;;;;;;6420995;23;20236;-65
2022/12/27 02:20:17;;;;;;;1.20;0.80;;;10.70;9.30;;;;;;6421759;23;20060;-65
2022/12/27 02:26:48;;;;;;;0.70;0.70;;;10.50;58.00;;;;;;6394555;23;19988;-65
2022/12/27 02:29:19;;;;;;;0.73;0.73;;;10.50;26.40;;;;;;6419605;23;20331;-64
2022/12/27 02:32:06;;;;;;;0.60;0.60;;;10.40;25.30;;;;;;6419127;23;19993;-65
2022/12/27 02:34:46;;;;;;;0.85;0.85;;;10.40;34.50;;;;;;6419858;23;20007;-65
2022/12/27 02:37:23;;;;;;;1.40;0.73;;;10.30;46.20;;;;;;6392221;23;20004;-65
2022/12/27 02:55:03;;;;;;;0.70;0.70;;;10.40;1.00;;;;;;6393591;23;20453;-66
2022/12/27 02:57:58;;;;;;;0.50;0.50;;;10.40;1.00;;;;;;6405677;23;20000;-66
2022/12/27 03:03:57;;;;;;;0.50;0.50;;;10.40;1.00;;;;;;6419306;23;20008;-65
2022/12/27 03:06:58;;;;;;;0.70;0.60;;;10.40;1.00;;;;;;6432684;22;20014;-65
2022/12/27 03:16:19;;;;;;;0.70;0.70;;;10.30;1.00;;;;;;6420271;23;20167;-67
2022/12/27 03:19:11;;;;;;;0.70;0.70;;;10.20;1.10;;;;;;6422649;23;20051;-66
2022/12/27 03:27:35;;;;;;;0.70;0.70;;;10.10;1.00;;;;;;6422669;23;20063;-65
2022/12/27 03:33:13;;;;;;;0.77;0.77;;;10.10;1.00;;;;;;6419751;23;20400;-63
2022/12/27 03:38:57;;;;;;;0.75;0.75;;;10.00;1.00;;;;;;6422799;23;20044;-65
2022/12/27 03:44:47;;;;;;;0.52;0.52;;;9.90;1.00;;;;;;6419658;23;20005;-64
2022/12/27 03:47:35;;;;;;;0.68;0.68;;;9.80;1.00;;;;;;6420099;23;20000;-66
2022/12/27 03:50:24;;;;;;;0.50;0.50;;;9.80;1.00;;;;;;6420584;23;20054;-65
2022/12/27 03:53:07;;;;;;;0.95;0.73;;;9.80;1.00;;;;;;6421680;23;20352;-65
2022/12/27 03:55:38;;;;;;;0.60;0.60;;;9.80;1.00;;;;;;6419286;22;20057;-66
2022/12/27 03:58:10;;;;;;;0.98;0.70;;;9.80;1.00;;;;;;6421069;23;20011;-65
2022/12/27 04:00:43;;;;;;;4.00;0.70;;;9.80;1.00;;;;;;6420958;23;20309;-64
2022/12/27 04:03:17;;;;;;;0.60;0.60;;;9.70;1.00;;;;;;6421440;23;20000;-65
2022/12/27 04:05:50;;;;;;;2.28;0.95;;;9.60;1.00;;;;;;6410304;22;20255;-63
2022/12/27 04:36:46;;;;;;;1.50;0.70;;;9.10;1.00;;;;;;6419812;23;20540;-63
2022/12/27 04:39:23;;;;;;;0.85;0.60;;;9.20;1.00;;;;;;6422958;23;20400;-65
2022/12/27 04:56:16;;;;;;;0.70;0.70;;;9.30;1.00;;;;;;6420748;22;20000;-65
2022/12/27 05:04:28;;;;;;;0.93;0.90;;;9.30;1.00;;;;;;6411153;22;20001;-65
2022/12/27 05:13:58;;;;;;;0.85;0.85;;;9.30;1.00;;;;;;6445451;23;20007;-63
2022/12/27 05:15:42;;;;;;;0.40;0.40;;;9.30;1.00;;;;;;6447019;23;20056;-64
2022/12/27 05:18:14;;;;;;;0.80;0.80;;;9.20;1.00;;;;;;6424302;23;20056;-64
2022/12/27 05:20:45;;;;;;;0.80;0.80;;;9.00;1.00;;;;;;6434010;23;19997;-65
2022/12/27 05:26:09;;;;;;;1.40;0.75;;;9.00;1.00;;;;;;6421132;23;20003;-65
2022/12/27 05:28:40;;;;;;;0.60;0.60;;;9.00;1.00;;;;;;6422993;23;20059;-67
2022/12/27 05:31:19;;;;;;;0.68;0.68;;;8.90;1.00;;;;;;6444978;23;20285;-66
2022/12/27 05:33:59;;;;;;;0.70;0.70;;;9.00;1.00;;;;;;6456056;23;20176;-65
2022/12/27 05:36:30;;;;;;;1.92;1.00;;;8.90;1.00;;;;;;6420641;23;20315;-63
2022/12/27 05:39:01;;;;;;;1.45;0.77;;;8.80;1.00;;;;;;6430463;23;20007;-65
2022/12/27 05:41:33;;;;;;;1.58;1.00;;;8.70;1.00;;;;;;6421355;23;20055;-65
2022/12/27 05:44:10;;;;;;;0.80;0.80;;;8.70;1.00;;;;;;6419670;23;20019;-63
2022/12/27 05:46:42;;;;;;;0.73;0.68;;;8.60;1.00;;;;;;6445103;23;20090;-64
2022/12/27 05:49:16;;;;;;;0.60;0.60;;;8.60;1.00;;;;;;6420952;23;20040;-64
2022/12/27 05:51:50;;;;;;;0.80;0.80;;;8.50;1.00;;;;;;6420526;23;19997;-65
2022/12/27 05:54:25;;;;;;;0.90;0.60;;;8.40;1.00;;;;;;6421937;23;20563;-64
2022/12/27 05:56:58;;;;;;;;;;;8.40;1.00;;;;;;6447806;22;20011;-62
2022/12/27 05:59:29;;;;;;;0.70;0.70;;;8.20;1.00;;;;;;6421576;23;19946;-65
2022/12/27 06:02:08;;;;;;;0.82;0.73;;;8.20;1.00;;;;;;6418950;23;20326;-65
2022/12/27 06:04:39;;;;;;;0.77;0.77;;;8.20;1.00;;;;;;6435651;22;20549;-64
2022/12/27 06:07:12;;;;;;;0.63;0.63;;;8.10;1.00;;;;;;6394076;23;19996;-64
2022/12/27 06:09:44;;;;;;;2.15;1.20;;;8.00;1.00;;;;;;6419721;23;19993;-63
2022/12/27 06:12:21;;;;;;;0.70;0.70;;;7.90;1.00;;;;;;6420484;23;20007;-64
2022/12/27 06:14:54;;;;;;;1.55;1.00;;;7.90;1.00;;;;;;6420087;23;20067;-64
2022/12/27 06:17:28;;;;;;;0.90;0.75;;;7.80;99.90;;;;;;6421090;23;20477;-64
2022/12/27 06:20:04;;;;;;;0.73;0.65;;;7.70;99.90;;;;;;6421427;23;20000;-64
2022/12/27 06:22:36;;;;;;;0.60;0.60;;;7.60;99.90;;;;;;6421635;23;20262;-64
2022/12/27 06:25:10;;;;;;;0.70;0.70;;;7.60;1.00;;;;;;6425019;23;20009;-63
2022/12/27 06:27:43;;;;;;;1.67;0.63;;;7.50;1.00;;;;;;6397298;23;20256;-65
2022/12/27 06:30:15;;;;;;;0.80;0.80;;;7.40;1.00;;;;;;6425269;23;20044;-64
2022/12/27 06:32:48;;;;;;;2.42;0.90;;;7.40;1.00;;;;;;6422545;23;20143;-64
2022/12/27 06:35:22;;;;;;;0.95;0.95;;;7.30;1.00;;;;;;6422977;23;20598;-64
2022/12/27 06:38:02;;;;;;;0.70;0.70;;;7.20;1.00;;;;;;6446356;23;20319;-64
2022/12/27 06:40:34;;;;;;;0.60;0.60;;;7.20;1.00;;;;;;6421788;23;20588;-64
2022/12/27 06:43:07;;;;;;;2.58;0.60;;;7.10;1.00;;;;;;6420536;23;20073;-65
2022/12/27 06:45:42;;;;;;;0.80;0.80;;;7.00;1.00;;;;;;6422190;23;20296;-64
2022/12/27 06:48:19;;;;;;;0.70;0.70;;;6.90;1.00;;;;;;6423377;23;20416;-63
2022/12/27 06:50:50;;;;;;;0.90;0.77;;;6.90;1.00;;;;;;6421038;23;20052;-63
2022/12/27 06:53:22;;;;;;;1.88;1.25;;;6.80;1.00;;;;;;6422898;23;20048;-65
2022/12/27 06:55:53;;;;;;;0.68;0.68;;;6.70;1.00;;;;;;6421069;22;20001;-64
2022/12/27 06:58:24;;;;;;;0.93;0.75;;;6.80;1.00;;;;;;6421602;23;20407;-64
2022/12/27 07:01:05;;;;;;;1.13;0.82;;;6.70;1.00;;;;;;6420280;23;20297;-64
2022/12/27 07:03:36;;;;;;;0.75;0.75;;;6.70;1.00;;;;;;6421485;23;19993;-63
2022/12/27 07:06:10;;;;;;;1.58;0.90;;;6.70;1.00;;;;;;6380671;23;20120;-63
2022/12/27 07:08:41;;;;;;;0.70;0.70;;;6.70;1.00;;;;;;6390973;23;19993;-64
2022/12/27 07:11:15;;;;;;;0.60;0.60;;;6.60;1.00;;;;;;6391073;23;20347;-64
2022/12/27 07:13:49;;;;;;;0.70;0.70;;;6.50;1.00;;;;;;6391450;23;19993;-65
2022/12/27 07:16:25;;;;;;;0.90;0.90;;;6.60;1.00;;;;;;6388820;23;20223;-64
2022/12/27 07:18:59;;;;;;;0.60;0.60;;;6.50;1.00;;;;;;6391853;23;20527;-65
2022/12/27 07:21:36;;;;;;;0.70;0.70;;;6.50;1.00;;;;;;6414293;23;20004;-63
2022/12/27 07:24:15;;;;;;;1.15;0.88;;;6.50;1.00;;;;;;6414673;23;20001;-64
2022/12/27 07:26:49;;;;;;;0.50;0.50;;;6.50;1.00;;;;;;6401980;23;20060;-64
2022/12/27 07:29:20;;;;;;;0.70;0.70;;;6.50;1.00;;;;;;6415007;23;20056;-64
2022/12/27 07:31:53;;;;;;;0.80;0.75;;;6.50;6.00;;;;;;6389075;23;20001;-64
2022/12/27 07:34:29;;;;;;;0.90;0.90;;;6.50;92.80;;;;;;6414771;23;20008;-64
2022/12/27 07:37:00;;;;;;;0.80;0.80;;;6.50;99.90;;;;;;6413950;23;20027;-63
2022/12/27 07:39:37;;;;;;;0.88;0.88;;;6.50;99.90;;;;;;6389056;23;20052;-64
2022/12/27 07:42:13;;;;;;;0.68;0.68;;;6.50;99.90;;;;;;6389721;23;19997;-63
2022/12/27 07:44:49;;;;;;;1.02;0.80;;;6.50;99.90;;;;;;6388617;23;19997;-64
2022/12/27 07:47:24;;;;;;;1.67;0.80;;;6.60;99.90;;;;;;6415171;23;20005;-64
2022/12/27 07:49:57;;;;;;;2.20;0.88;;;6.60;99.90;;;;;;6394244;23;20236;-64
2022/12/27 07:52:31;;;;;;;0.90;0.90;;;6.60;99.90;;;;;;6413079;23;20000;-66
2022/12/27 07:55:05;;;;;;;1.40;1.08;;;6.60;99.90;;;;;;6414333;23;20001;-65
2022/12/27 07:57:42;;;;;;;0.93;0.70;;;6.60;99.90;;;;;;6378641;22;20003;-63
2022/12/27 08:00:14;;;;;;;1.10;0.70;;;6.50;99.90;;;;;;6419840;23;20002;-64
2022/12/27 08:02:48;;;;;;;1.15;0.82;;;6.50;99.90;;;;;;6417067;23;20014;-64
2022/12/27 08:05:24;;;;;;;1.00;0.90;;;6.60;99.90;;;;;;6396873;22;20012;-65
2022/12/27 08:08:06;;;;;;;0.85;0.80;;;6.60;99.90;;;;;;6442164;23;19992;-63
2022/12/27 08:10:40;;;;;;;1.27;1.10;;;6.60;99.90;;;;;;6427262;22;20004;-64
2022/12/27 08:13:17;;;;;;;1.20;1.00;;;6.60;99.90;;;;;;6419710;23;20015;-63
2022/12/27 08:15:54;;;;;;;3.60;0.93;;;6.60;99.90;;;;;;6395807;23;20294;-64
2022/12/27 08:18:28;;;;;;;1.42;1.33;;;6.60;99.90;;;;;;6395198;23;20049;-63
2022/12/27 08:21:00;;;;;;;0.82;0.82;;;6.60;99.90;;;;;;6420861;23;20002;-64
2022/12/27 08:23:34;;;;;;;1.25;1.00;;;6.60;99.90;;;;;;6418133;23;20319;-65
2022/12/27 08:26:06;;;;;;;1.20;1.10;;;6.70;99.90;;;;;;6393874;23;20057;-65
2022/12/27 08:28:37;;;;;;;0.75;0.75;;;6.70;99.90;;;;;;6394600;23;19993;-64
2022/12/27 08:31:11;;;;;;;0.70;0.70;;;6.70;27.20;;;;;;6420719;23;20003;-64
2022/12/27 08:33:47;;;;;;;0.80;0.70;;;6.70;1.00;;;;;;6418929;23;20006;-64
2022/12/27 08:36:18;;;;;;;1.15;1.00;;;6.70;1.00;;;;;;6419335;23;19995;-64
2022/12/27 08:38:55;;;;;;;1.05;0.75;;;6.80;26.80;;;;;;6418463;23;20061;-64
2022/12/27 08:41:32;;;;;;;2.13;0.90;;;6.80;1.00;;;;;;6420678;23;20040;-64
2022/12/27 08:44:08;;;;;;;1.10;1.00;;;6.70;1.00;;;;;;6420735;23;20008;-64
2022/12/27 08:46:39;;;;;;;0.80;0.80;;;6.60;1.00;;;;;;6419477;23;20005;-64
2022/12/27 08:49:16;;;;;;;1.00;1.00;;;6.60;1.00;;;;;;6419524;23;20003;-64
2022/12/27 08:51:50;;;;;;;1.13;0.85;;;6.60;1.00;;;;;;6444655;23;20030;-65
2022/12/27 08:54:21;;;;;;;1.10;1.00;;;6.70;1.00;;;;;;6394152;23;20008;-63
2022/12/27 08:56:52;;;;;;;0.73;0.73;;;6.70;1.00;;;;;;6393330;23;20117;-64
2022/12/27 08:59:29;;;;;;;1.20;0.88;;;6.70;1.00;;;;;;6418384;23;20452;-63
2022/12/27 09:02:05;;;;;;;1.15;0.98;;;6.70;1.00;;;;;;6417298;22;20478;-63
2022/12/27 09:04:39;;;;;;;1.65;1.00;;;6.80;1.00;;;;;;6403966;22;20019;-64
2022/12/27 09:07:13;;;;;;;2.07;0.90;;;6.70;1.00;;;;;;6407172;23;20001;-64
2022/12/27 09:09:49;;;;;;;1.23;1.13;;;6.80;1.00;;;;;;6387160;23;19997;-64
2022/12/27 09:12:24;;;;;;;1.42;1.08;;;6.80;1.00;;;;;;6395909;23;20514;-63
2022/12/27 09:15:01;;;;;;;1.05;1.00;;;6.80;99.90;;;;;;6412669;23;20003;-64
2022/12/27 09:17:33;;;;;;;1.00;0.85;;;6.80;1.00;;;;;;6385568;23;19993;-63
2022/12/27 09:20:10;;;;;;;0.88;0.85;;;6.90;1.00;;;;;;6383313;23;20001;-64
2022/12/27 09:22:42;;;;;;;0.60;0.60;;;7.00;1.00;;;;;;6386880;23;20007;-63
2022/12/27 09:25:15;;;;;;;3.50;1.92;;;7.10;99.90;;;;;;6413301;23;20005;-64
2022/12/27 09:27:47;;;;;;;3.95;2.25;;;7.10;1.00;;;;;;6392756;23;20056;-63
2022/12/27 09:30:28;;;;;;;3.42;2.83;;;6.90;99.90;;;;;;6416137;23;20182;-64
2022/12/27 09:33:05;;;;;;;5.80;2.28;;;7.00;99.90;;;;;;6388070;23;20016;-63
2022/12/27 09:35:36;;;;;;;1.70;1.40;;;7.00;99.90;;;;;;6387702;23;19996;-64
2022/12/27 09:38:07;;;;;;;2.65;1.40;;;7.00;99.90;;;;;;6388171;23;20023;-64
2022/12/27 09:40:39;;;;;;;0.98;0.93;;;7.10;21.10;;;;;;6362919;23;20008;-63
2022/12/27 09:43:20;;;;;;;2.28;1.20;;;7.20;1.00;;;;;;6411487;23;20522;-65
2022/12/27 09:45:58;;;;;;;3.20;2.00;;;7.40;1.00;;;;;;6389753;23;20005;-63
2022/12/27 09:48:31;;;;;;;3.65;1.42;;;7.70;1.00;;;;;;6390346;23;20045;-63
2022/12/27 09:51:15;;;;;;;1.67;1.58;;;7.60;99.90;;;;;;6388860;23;20052;-63
2022/12/27 09:54:01;;;;;;;2.30;1.58;;;7.50;1.00;;;;;;6424033;23;20065;-64
2022/12/27 09:56:36;;;;;;;1.80;0.80;;;7.60;1.00;;;;;;6364894;23;19996;-65
2022/12/27 09:59:29;;;;;;;3.38;2.20;;;7.60;1.00;;;;;;6388697;23;20001;-64
2022/12/27 10:02:05;;;;;;;1.70;0.98;;;7.70;1.00;;;;;;6389434;23;20013;-63
2022/12/27 10:04:37;;;;;;;1.75;1.50;;;8.00;1.00;;;;;;6399252;23;20545;-63
2022/12/27 10:07:25;;;;;;;1.40;1.30;;;7.90;99.90;;;;;;6370681;23;20005;-65
2022/12/27 10:10:15;;;;;;;1.70;1.60;;;8.10;99.90;;;;;;6390549;23;19999;-63
2022/12/27 10:13:07;;;;;;;1.35;1.00;;;8.30;99.90;;;;;;6414300;23;20000;-66
2022/12/27 10:15:47;;;;;;;1.10;0.85;;;8.80;99.90;;;;;;6413629;23;20277;-64
2022/12/27 10:18:52;;;;;;;0.70;0.70;;;9.10;1.00;;;;;;6425849;23;20496;-64
2022/12/27 10:21:31;;;;;;;1.20;1.00;;;9.00;1.00;;;;;;6379233;23;19989;-64
2022/12/27 10:24:18;;;;;;;1.65;1.00;;;9.10;1.00;;;;;;6413395;23;20015;-64
2022/12/27 10:26:56;;;;;;;0.73;0.73;;;9.10;1.00;;;;;;6365396;23;19993;-64
2022/12/27 10:29:28;;;;;;;1.15;1.00;;;9.00;99.90;;;;;;6389456;23;20003;-63
2022/12/27 10:31:59;;;;;;;0.93;0.63;;;9.00;99.90;;;;;;6389099;23;20063;-63
2022/12/27 10:34:32;;;;;;;1.05;1.02;;;9.00;1.00;;;;;;6365140;23;20361;-65
2022/12/27 10:37:15;;;;;;;2.15;0.90;;;9.60;10.60;;;;;;6364006;23;20060;-63
2022/12/27 10:39:49;;;;;;;0.75;0.75;;;9.60;1.00;;;;;;6414274;23;19996;-65
2022/12/27 10:42:58;;;;;;;1.65;0.82;;;9.90;99.90;;;;;;6412373;23;19997;-63
2022/12/27 10:45:37;;;;;;;1.23;1.00;;;10.00;99.90;;;;;;6364516;23;20001;-66
2022/12/27 10:48:33;;;;;;;1.30;1.00;;;10.30;1.00;;;;;;6389010;23;20011;-65
2022/12/27 10:51:09;;;;;;;1.20;0.75;;;10.30;1.00;;;;;;6387507;23;19988;-64
2022/12/27 10:53:46;;;;;;;1.10;0.80;;;10.40;1.00;;;;;;6364346;23;20008;-63
2022/12/27 10:56:33;;;;;;;0.80;0.80;;;10.90;99.90;;;;;;6374245;23;20017;-65
2022/12/27 10:59:13;;;;;;;0.70;0.70;;;10.60;99.90;;;;;;6372237;23;20005;-65
2022/12/27 11:01:55;;;;;;;1.08;0.90;;;10.90;1.00;;;;;;6354801;23;20015;-63
2022/12/27 11:04:31;;;;;;;0.90;0.90;;;10.70;99.90;;;;;;6398654;23;20012;-64
2022/12/27 11:07:02;;;;;;;1.33;0.90;;;10.00;99.90;;;;;;6385020;23;20019;-64
2022/12/27 11:09:38;;;;;;;2.85;1.10;;;10.00;1.00;;;;;;6403405;23;20003;-64
2022/12/27 11:12:24;;;;;;;0.95;0.80;;;10.00;1.00;;;;;;6379084;23;20553;-63
2022/12/27 11:15:16;;;;;;;1.52;0.77;;;10.60;1.00;;;;;;6400241;23;19985;-65
2022/12/27 11:17:53;;;;;;;0.55;0.52;;;11.30;1.00;;;;;;6379409;23;20005;-64
2022/12/27 11:20:42;;;;;;;0.60;0.60;;;10.90;1.00;;;;;;6396618;23;19997;-65
2022/12/27 11:23:16;;;;;;;2.50;0.70;;;11.20;1.00;;;;;;6379332;23;20232;-64
2022/12/27 11:26:16;;;;;;;0.93;0.80;;;10.90;1.00;;;;;;6389190;23;20408;-65
2022/12/27 11:28:56;;;;;;;1.00;0.70;;;10.60;1.00;;;;;;6378033;23;20228;-63
2022/12/27 11:31:35;;;;;;;1.20;0.80;;;10.60;1.00;;;;;;6388598;23;20571;-64
2022/12/27 11:34:32;;;;;;;0.80;0.80;;;10.00;1.00;;;;;;6374245;23;20027;-64
2022/12/27 11:37:13;;;;;;;2.08;1.08;;;9.70;1.00;;;;;;6374882;23;19989;-65
2022/12/27 11:39:49;;;;;;;1.85;0.90;;;9.80;12.00;;;;;;6398267;23;20005;-64
2022/12/27 11:42:44;;;;;;;2.47;0.80;;;9.70;99.90;;;;;;6374384;23;20092;-63
2022/12/27 11:45:18;;;;;;;;;;;10.40;1.00;;;;;;6389622;23;20388;-63
2022/12/27 11:48:17;;;;;;;1.85;0.80;;;10.60;1.00;;;;;;6375024;23;20378;-64
2022/12/27 11:51:00;;;;;;;1.77;1.02;;;10.30;1.00;;;;;;6378119;23;20004;-63
2022/12/27 11:53:54;;;;;;;1.27;0.80;;;10.40;1.00;;;;;;6378741;23;20005;-63
2022/12/27 11:56:31;;;;;;;0.77;0.77;;;10.60;1.00;;;;;;6363461;23;20011;-64
2022/12/27 11:59:16;;;;;;;3.60;0.88;;;10.50;1.00;;;;;;6380099;23;20013;-64
2022/12/27 12:02:02;;;;;;;1.00;0.90;;;10.20;1.00;;;;;;6413206;23;20008;-64
2022/12/27 12:04:35;;;;;;;0.65;0.65;;;10.60;1.00;;;;;;6375639;23;20019;-64
2022/12/27 12:07:16;;;;;;;0.90;0.90;;;10.70;1.00;;;;;;6387774;23;20000;-63
2022/12/27 12:10:11;;;;;;;3.03;1.10;;;10.20;1.00;;;;;;6386659;23;20074;-64
2022/12/27 12:13:11;;;;;;;1.20;0.88;;;10.50;99.90;;;;;;6411156;23;19996;-65
2022/12/27 12:16:01;;;;;;;0.70;0.70;;;10.60;1.00;;;;;;6387259;23;20273;-64
2022/12/27 12:18:50;;;;;;;1.27;0.90;;;10.20;1.00;;;;;;6386789;23;20007;-64
2022/12/27 12:21:49;;;;;;;1.38;1.10;;;10.40;1.00;;;;;;6386332;23;20001;-64
2022/12/27 12:24:50;;;;;;;1.40;1.00;;;10.60;1.00;;;;;;6385617;23;20019;-65
2022/12/27 12:27:45;;;;;;;1.95;1.02;;;10.70;1.00;;;;;;6389133;23;20058;-64
2022/12/27 12:30:41;;;;;;;1.10;0.85;;;10.60;1.00;;;;;;6373612;23;19996;-64
2022/12/27 12:33:32;;;;;;;0.70;0.63;;;10.30;1.00;;;;;;6368085;23;20008;-64
2022/12/27 12:36:19;;;;;;;1.45;0.90;;;10.50;1.00;;;;;;6411421;23;20000;-64
2022/12/27 12:39:29;;;;;;;0.77;0.75;;;10.50;1.00;;;;;;6388463;23;19999;-63
2022/12/27 12:42:14;;;;;;;2.50;1.10;;;10.50;1.00;;;;;;6371143;23;20012;-63
2022/12/27 12:44:48;;;;;;;1.67;0.85;;;10.20;1.00;;;;;;6388358;23;20015;-63
2022/12/27 12:47:43;;;;;;;1.73;0.93;;;10.30;1.00;;;;;;6387836;23;20305;-64
2022/12/27 12:50:45;;;;;;;1.00;1.00;;;10.20;1.00;;;;;;6410866;23;19997;-64
2022/12/27 12:53:46;;;;;;;0.75;0.63;;;10.00;1.00;;;;;;6388064;23;19993;-63
2022/12/27 12:56:45;;;;;;;2.60;1.33;;;9.80;1.00;;;;;;6388046;23;20496;-64
2022/12/27 12:59:35;;;;;;;0.80;0.80;;;10.00;1.00;;;;;;6386908;23;19996;-65
2022/12/27 13:02:15;;;;;;;2.17;1.20;;;10.80;99.90;;;;;;6370965;23;20009;-63
2022/12/27 13:05:13;;;;;;;0.82;0.82;;;10.80;1.00;;;;;;6387874;23;20341;-62
2022/12/27 13:08:06;;;;;;;2.53;0.90;;;10.60;1.00;;;;;;6378659;23;20310;-64
2022/12/27 13:11:04;;;;;;;0.80;0.80;;;10.20;1.00;;;;;;6398009;23;20498;-64
2022/12/27 13:14:00;;;;;;;1.27;0.85;;;10.50;1.00;;;;;;6413264;23;19989;-64
2022/12/27 13:17:13;;;;;;;0.80;0.80;;;11.30;1.00;;;;;;6390078;23;20059;-64
2022/12/27 13:20:02;;;;;;;1.00;0.90;;;11.90;7.60;;;;;;6410990;23;20000;-62
2022/12/27 13:22:59;;;;;;;1.08;0.75;;;10.90;1.00;;;;;;6391068;23;20004;-64
2022/12/27 13:25:53;;;;;;;1.58;0.70;;;10.10;1.00;;;;;;6378549;23;20009;-63
2022/12/27 13:29:03;;;;;;;0.77;0.77;;;9.90;53.50;;;;;;6391566;23;20049;-62
2022/12/27 13:32:03;;;;;;;2.97;1.10;;;10.00;1.00;;;;;;6390835;23;20297;-63
2022/12/27 13:34:51;;;;;;;1.38;1.15;;;9.90;99.90;;;;;;6393019;23;20257;-64
2022/12/27 13:37:34;;;;;;;2.70;1.10;;;9.80;92.50;;;;;;6391196;23;19993;-64
2022/12/27 13:40:31;;;;;;;0.70;0.68;;;9.80;1.00;;;;;;6392495;23;20596;-63
2022/12/27 13:43:41;;;;;;;1.02;0.68;;;9.40;49.70;;;;;;6390473;23;20011;-64
2022/12/27 13:46:23;;;;;;;1.27;0.95;;;9.10;1.00;;;;;;6393499;23;19997;-63
2022/12/27 13:49:04;;;;;;;2.17;1.00;;;8.80;1.00;;;;;;6390096;23;20005;-64
2022/12/27 13:51:43;;;;;;;1.15;0.80;;;8.50;99.90;;;;;;6416526;23;20357;-63
2022/12/27 13:54:22;;;;;;;0.73;0.70;;;8.20;1.00;;;;;;6415324;23;19999;-63
2022/12/27 13:57:27;;;;;;;1.10;0.85;;;7.80;1.00;;;;;;6393392;22;20056;-64
2022/12/27 14:00:13;;;;;;;1.07;0.80;;;7.70;99.90;;;;;;6414243;23;19993;-64
2022/12/27 14:03:06;;;;;;;0.90;0.70;;;7.60;99.90;;;;;;6391406;23;20060;-64
2022/12/27 14:05:40;;;;;;;2.67;1.00;;;7.50;1.00;;;;;;6395228;22;20080;-64
2022/12/27 14:08:29;;;;;;;1.20;0.93;;;7.40;1.00;;;;;;6390233;23;19995;-63
2022/12/27 14:11:04;;;;;;;0.95;0.60;;;7.30;99.90;;;;;;6390715;23;20443;-64
2022/12/27 14:13:45;;;;;;;1.00;0.70;;;7.30;99.90;;;;;;6389663;23;20061;-63
2022/12/27 14:16:22;;;;;;;0.88;0.88;;;7.30;1.00;;;;;;6415139;23;20023;-65
2022/12/27 14:19:31;;;;;;;0.95;0.70;;;7.30;1.00;;;;;;6414194;23;20011;-64
2022/12/27 14:22:43;;;;;;;2.22;0.80;;;7.20;1.00;;;;;;6416150;23;20126;-64
2022/12/27 14:25:33;;;;;;;0.60;0.60;;;7.10;1.00;;;;;;6406450;23;20015;-63
2022/12/27 14:28:40;;;;;;;3.33;0.93;;;6.90;99.90;;;;;;6416136;23;19993;-63
2022/12/27 14:31:26;;;;;;;2.17;0.82;;;6.80;99.90;;;;;;6390985;23;20056;-64
2022/12/27 14:34:17;;;;;;;3.03;1.40;;;6.70;1.00;;;;;;6389808;23;20494;-63
2022/12/27 14:37:26;;;;;;;1.95;1.02;;;6.60;99.90;;;;;;6389939;23;20069;-63
2022/12/27 14:40:15;;;;;;;4.53;1.00;;;6.40;99.90;;;;;;6391051;23;20048;-64
2022/12/27 14:43:04;;;;;;;1.38;1.13;;;6.40;99.90;;;;;;6389618;23;19999;-63
2022/12/27 14:45:54;;;;;;;1.30;0.90;;;6.30;99.90;;;;;;6415701;23;20015;-63
2022/12/27 14:49:02;;;;;;;2.67;1.50;;;6.20;1.00;;;;;;6414134;23;20444;-64
2022/12/27 14:52:13;;;;;;;2.05;1.05;;;6.10;1.00;;;;;;6380324;23;20363;-63
2022/12/27 14:55:15;;;;;;;3.60;1.50;;;6.10;1.00;;;;;;6414350;23;20052;-64
2022/12/27 14:57:52;;;;;;;3.00;1.30;;;6.10;1.00;;;;;;6389637;23;20371;-64
2022/12/27 15:00:25;;;;;;;2.10;1.02;;;6.10;1.00;;;;;;6414502;23;20193;-63
2022/12/27 15:03:14;;;;;;;1.52;1.02;;;6.00;1.00;;;;;;6387979;23;20372;-63
2022/12/27 15:06:03;;;;;;;0.82;0.80;;;6.00;1.00;;;;;;6396078;23;20009;-63
2022/12/27 15:09:05;;;;;;;1.38;1.15;;;6.00;1.00;;;;;;6391540;23;20053;-64
2022/12/27 15:12:21;;;;;;;4.22;1.10;;;5.90;99.90;;;;;;6378573;23;20005;-64
2022/12/27 15:15:19;;;;;;;1.48;1.00;;;5.90;99.90;;;;;;6380989;23;20012;-63
2022/12/27 15:18:08;;;;;;;3.50;1.00;;;5.80;99.90;;;;;;6390227;23;20003;-63
2022/12/27 15:21:11;;;;;;;1.20;1.10;;;5.70;1.00;;;;;;6386153;23;20138;-63
2022/12/27 15:23:54;;;;;;;1.42;1.25;;;5.60;1.00;;;;;;6385790;23;20009;-63
2022/12/27 15:26:47;;;;;;;3.90;1.20;;;5.50;1.00;;;;;;6411401;23;20004;-62
2022/12/27 15:29:37;;;;;;;2.78;1.30;;;5.50;1.00;;;;;;6387746;23;20001;-63
2022/12/27 15:32:23;;;;;;;3.80;1.23;;;5.40;1.00;;;;;;6387278;23;19997;-63
2022/12/27 15:35:29;;;;;;;2.22;1.35;;;5.40;1.00;;;;;;6389242;23;20249;-64
2022/12/27 15:38:06;;;;;;;1.50;1.10;;;5.30;1.00;;;;;;6390336;23;20189;-63
2022/12/27 15:40:54;;;;;;;2.55;1.25;;;5.40;1.00;;;;;;6413099;23;20057;-64
2022/12/27 15:43:40;;;;;;;1.88;1.10;;;5.30;1.00;;;;;;6389780;23;20349;-62
2022/12/27 15:46:30;;;;;;;1.10;0.98;;;5.40;1.00;;;;;;6404049;22;20022;-62
2022/12/27 15:49:16;;;;;;;2.42;1.27;;;5.30;1.00;;;;;;6389315;23;20284;-63
2022/12/27 15:52:25;;;;;;;3.17;0.93;;;5.30;1.00;;;;;;6388607;23;20516;-64
2022/12/27 15:55:14;;;;;;;1.80;0.95;;;5.40;1.00;;;;;;6377118;22;20009;-62